createdAt,value
2022-12-07T00:01:39.712Z,6.32
2022-12-07T00:04:10.890Z,6.25
2022-12-07T00:06:44.227Z,5.35
2022-12-07T00:09:14.914Z,5.20
2022-12-07T00:11:42.549Z,5.57
2022-12-07T00:14:14.733Z,5.35
2022-12-07T00:16:42.351Z,4.60
2022-12-07T00:19:13.142Z,4.25
2022-12-07T00:21:40.329Z,5.30
2022-12-07T00:24:08.065Z,5.57
2022-12-07T00:26:39.041Z,4.40
2022-12-07T00:29:13.006Z,4.38
2022-12-07T00:31:41.407Z,4.53
2022-12-07T00:34:15.671Z,5.18
2022-12-07T00:36:42.933Z,4.45
2022-12-07T00:39:10.878Z,5.18
2022-12-07T00:41:37.994Z,5.70
2022-12-07T00:44:05.081Z,5.75
2022-12-07T00:46:32.238Z,5.15
2022-12-07T00:48:59.787Z,5.13
2022-12-07T00:51:27.248Z,5.68
2022-12-07T00:53:55.022Z,5.68
2022-12-07T00:56:34.183Z,5.40
2022-12-07T00:59:04.149Z,5.63
2022-12-07T01:01:37.997Z,5.32
2022-12-07T01:04:06.356Z,5.45
2022-12-07T01:09:45.623Z,5.07
2022-12-07T01:12:12.530Z,5.57
2022-12-07T01:14:39.577Z,5.22
2022-12-07T01:17:40.866Z,4.45
2022-12-07T01:26:34.099Z,4.63
2022-12-07T01:29:01.912Z,4.50
2022-12-07T01:31:30.294Z,4.22
2022-12-07T01:34:00.084Z,5.95
2022-12-07T01:40:09.629Z,7.07
2022-12-07T01:42:36.596Z,5.00
2022-12-07T01:54:23.390Z,4.13
2022-12-07T02:00:41.000Z,3.58
2022-12-07T02:03:25.524Z,4.63
2022-12-07T02:05:54.047Z,4.35
2022-12-07T02:08:21.824Z,3.72
2022-12-07T02:10:49.080Z,4.60
2022-12-07T02:13:22.010Z,4.35
2022-12-07T02:16:18.514Z,3.88
2022-12-07T02:19:03.138Z,4.30
2022-12-07T02:24:38.181Z,3.92
2022-12-07T02:45:38.697Z,2.83
2022-12-07T02:49:16.443Z,4.43
2022-12-07T02:51:47.022Z,2.70
2022-12-07T02:54:17.664Z,4.25
2022-12-07T02:56:44.477Z,3.30
2022-12-07T02:59:36.781Z,3.63
2022-12-07T03:02:51.115Z,3.13
2022-12-07T03:09:32.164Z,3.63
2022-12-07T03:12:33.745Z,3.53
2022-12-07T03:19:01.629Z,3.53
2022-12-07T03:21:54.804Z,2.60
2022-12-07T03:24:30.448Z,2.60
2022-12-07T03:27:07.563Z,3.10
2022-12-07T03:33:30.894Z,3.47
2022-12-07T03:36:06.336Z,3.05
2022-12-07T03:38:50.604Z,3.17
2022-12-07T03:41:26.992Z,3.10
2022-12-07T03:43:56.536Z,4.70
2022-12-07T03:46:52.253Z,3.10
2022-12-07T03:49:41.756Z,3.57
2022-12-07T03:52:40.898Z,3.30
2022-12-07T03:55:12.571Z,3.47
2022-12-07T03:57:41.990Z,3.08
2022-12-07T04:00:11.595Z,3.10
2022-12-07T04:02:59.707Z,3.45
2022-12-07T04:05:27.159Z,3.70
2022-12-07T04:07:54.181Z,2.38
2022-12-07T04:10:21.656Z,2.28
2022-12-07T04:15:58.959Z,2.22
2022-12-07T04:18:25.943Z,2.50
2022-12-07T04:20:52.889Z,2.40
2022-12-07T04:23:19.792Z,2.13
2022-12-07T04:25:49.750Z,2.10
2022-12-07T04:31:33.056Z,3.08
2022-12-07T04:34:00.093Z,2.42
2022-12-07T04:37:21.945Z,3.15
2022-12-07T04:39:57.225Z,3.90
2022-12-07T04:42:24.126Z,2.67
2022-12-07T04:44:51.993Z,3.55
2022-12-07T04:53:47.012Z,2.75
2022-12-07T04:56:15.954Z,3.75
2022-12-07T05:01:55.947Z,3.83
2022-12-07T05:10:24.322Z,2.22
2022-12-07T05:12:53.232Z,2.95
2022-12-07T05:15:27.238Z,3.03
2022-12-07T05:28:55.250Z,2.50
2022-12-07T05:31:23.695Z,2.95
2022-12-07T05:41:11.090Z,2.90
2022-12-07T05:43:40.277Z,2.67
2022-12-07T05:46:07.228Z,2.75
2022-12-07T05:48:34.227Z,2.13
2022-12-07T05:51:01.158Z,2.60
2022-12-07T05:53:28.126Z,2.08
2022-12-07T05:55:55.175Z,3.08
2022-12-07T05:58:53.100Z,2.67
2022-12-07T06:01:21.684Z,2.40
2022-12-07T06:03:48.656Z,2.03
2022-12-07T06:06:17.470Z,2.03
2022-12-07T06:08:44.610Z,2.50
2022-12-07T06:11:57.756Z,2.40
2022-12-07T06:14:44.029Z,3.08
2022-12-07T06:17:21.254Z,2.03
2022-12-07T06:19:49.459Z,2.15
2022-12-07T06:22:17.191Z,2.42
2022-12-07T06:24:44.250Z,3.03
2022-12-07T06:27:11.576Z,2.55
2022-12-07T06:29:38.650Z,2.40
2022-12-07T06:32:06.297Z,2.67
2022-12-07T06:34:33.257Z,2.40
2022-12-07T06:37:00.169Z,3.50
2022-12-07T06:39:30.374Z,2.42
2022-12-07T06:41:58.674Z,2.35
2022-12-07T06:44:26.571Z,2.45
2022-12-07T06:47:12.173Z,2.90
2022-12-07T06:49:40.685Z,2.70
2022-12-07T06:52:08.181Z,3.05
2022-12-07T06:54:35.186Z,2.25
2022-12-07T06:57:02.189Z,2.97
2022-12-07T07:02:44.399Z,2.88
2022-12-07T07:05:19.706Z,3.58
2022-12-07T07:08:20.952Z,2.20
2022-12-07T08:04:23.102Z,2.28
2022-12-07T08:06:50.190Z,2.72
2022-12-07T08:09:17.164Z,3.05
2022-12-07T08:11:44.096Z,2.42
2022-12-07T08:14:12.167Z,3.10
2022-12-07T08:16:39.410Z,2.20
2022-12-07T08:22:20.147Z,2.00
2022-12-07T08:24:47.221Z,1.95
2022-12-07T08:27:14.111Z,2.58
2022-12-07T08:29:41.129Z,1.50
2022-12-07T08:35:01.050Z,2.13
2022-12-07T08:37:27.965Z,2.28
2022-12-07T08:43:03.538Z,3.35
2022-12-07T08:45:33.343Z,2.25
2022-12-07T08:48:06.813Z,2.05
2022-12-07T08:50:35.197Z,1.95
2022-12-07T08:53:03.525Z,1.60
2022-12-07T08:55:30.623Z,2.20
2022-12-07T08:58:00.308Z,1.58
2022-12-07T09:00:27.965Z,2.95
2022-12-07T09:02:55.687Z,1.42
2022-12-07T09:05:23.006Z,1.20
2022-12-07T09:07:52.858Z,1.42
2022-12-07T09:10:20.325Z,1.52
2022-12-07T09:12:47.368Z,1.40
2022-12-07T09:15:14.357Z,1.30
2022-12-07T09:17:41.364Z,1.40
2022-12-07T09:20:08.959Z,1.45
2022-12-07T09:22:36.134Z,1.35
2022-12-07T09:25:04.954Z,1.20
2022-12-07T09:27:32.797Z,2.17
2022-12-07T09:29:59.916Z,1.63
2022-12-07T09:32:27.043Z,1.48
2022-12-07T09:34:54.117Z,1.50
2022-12-07T09:37:22.417Z,1.30
2022-12-07T09:39:50.495Z,1.00
2022-12-07T09:42:34.258Z,1.38
2022-12-07T09:45:02.846Z,0.93
2022-12-07T09:47:30.609Z,1.25
2022-12-07T09:50:11.939Z,1.30
2022-12-07T09:52:39.506Z,1.23
2022-12-07T09:55:17.111Z,1.23
2022-12-07T09:57:44.687Z,1.45
2022-12-07T10:00:18.998Z,1.17
2022-12-07T10:03:00.935Z,1.00
2022-12-07T10:05:45.205Z,1.23
2022-12-07T10:08:15.080Z,2.30
2022-12-07T10:10:42.974Z,0.75
2022-12-07T10:13:16.634Z,0.88
2022-12-07T10:15:53.870Z,1.20
2022-12-07T10:18:32.837Z,1.30
2022-12-07T10:21:21.598Z,1.10
2022-12-07T10:24:16.004Z,1.25
2022-12-07T10:26:48.945Z,1.80
2022-12-07T10:29:35.843Z,0.95
2022-12-07T10:32:08.052Z,1.05
2022-12-07T10:34:42.163Z,1.80
2022-12-07T10:37:10.246Z,1.55
2022-12-07T10:39:48.752Z,2.75
2022-12-07T10:42:25.611Z,1.15
2022-12-07T10:45:12.954Z,1.20
2022-12-07T10:47:58.530Z,1.55
2022-12-07T10:51:03.923Z,2.25
2022-12-07T10:54:22.486Z,1.88
2022-12-07T10:57:14.044Z,0.80
2022-12-07T11:00:05.261Z,1.15
2022-12-07T11:03:15.180Z,2.03
2022-12-07T11:05:59.937Z,1.40
2022-12-07T11:08:54.416Z,1.60
2022-12-07T11:12:03.264Z,1.52
2022-12-07T11:14:40.443Z,2.45
2022-12-07T11:17:25.171Z,1.38
2022-12-07T11:20:29.504Z,2.00
2022-12-07T11:23:16.137Z,1.20
2022-12-07T11:25:49.994Z,1.70
2022-12-07T11:29:03.803Z,2.25
2022-12-07T11:31:57.822Z,1.88
2022-12-07T11:34:58.988Z,1.15
2022-12-07T11:37:38.295Z,2.72
2022-12-07T11:40:26.697Z,1.77
2022-12-07T11:43:20.194Z,1.33
2022-12-07T11:46:05.608Z,1.02
2022-12-07T11:48:48.442Z,1.30
2022-12-07T11:51:19.836Z,1.15
2022-12-07T11:53:54.348Z,1.35
2022-12-07T11:56:24.865Z,0.98
2022-12-07T11:59:12.680Z,0.77
2022-12-07T12:01:39.940Z,1.50
2022-12-07T12:04:12.662Z,1.30
2022-12-07T12:06:42.673Z,0.82
2022-12-07T12:09:44.640Z,0.85
2022-12-07T12:15:40.194Z,1.23
2022-12-07T12:19:16.484Z,1.42
2022-12-07T12:21:44.390Z,1.35
2022-12-07T12:24:19.355Z,1.52
2022-12-07T12:27:08.894Z,1.10
2022-12-07T12:29:40.417Z,1.75
2022-12-07T12:32:18.753Z,1.10
2022-12-07T12:34:50.875Z,1.70
2022-12-07T12:37:36.159Z,0.90
2022-12-07T12:40:15.505Z,0.80
2022-12-07T12:42:48.987Z,1.00
2022-12-07T12:45:31.148Z,1.65
2022-12-07T12:48:00.427Z,1.98
2022-12-07T12:50:29.983Z,0.82
2022-12-07T12:53:02.740Z,0.63
2022-12-07T12:56:15.710Z,1.77
2022-12-07T12:58:46.251Z,1.10
2022-12-07T13:01:41.307Z,1.33
2022-12-07T13:04:36.244Z,1.05
2022-12-07T13:07:03.239Z,0.80
2022-12-07T13:09:36.083Z,0.93
2022-12-07T13:12:15.103Z,1.77
2022-12-07T13:14:57.117Z,1.42
2022-12-07T13:17:33.173Z,1.00
2022-12-07T13:20:03.851Z,0.40
2022-12-07T13:22:38.965Z,0.85
2022-12-07T13:25:30.663Z,0.70
2022-12-07T13:28:11.591Z,0.80
2022-12-07T13:31:05.933Z,0.63
2022-12-07T13:33:36.283Z,0.60
2022-12-07T13:36:03.690Z,1.40
2022-12-07T13:38:37.920Z,0.60
2022-12-07T13:41:18.661Z,0.80
2022-12-07T13:44:09.586Z,0.75
2022-12-07T13:46:50.598Z,0.90
2022-12-07T13:49:28.919Z,0.95
2022-12-07T13:52:14.544Z,1.60
2022-12-07T13:55:09.177Z,1.65
2022-12-07T13:57:37.361Z,1.20
2022-12-07T14:00:22.820Z,0.45
2022-12-07T14:03:13.499Z,0.70
2022-12-07T14:05:45.763Z,2.33
2022-12-07T14:08:12.664Z,0.90
2022-12-07T14:10:51.453Z,0.70
2022-12-07T14:13:40.260Z,0.88
2022-12-07T14:16:30.555Z,0.73
2022-12-07T14:19:00.936Z,0.77
2022-12-07T14:21:34.378Z,0.70
2022-12-07T14:24:20.521Z,0.73
2022-12-07T14:26:50.348Z,0.73
2022-12-07T14:29:32.476Z,0.50
2022-12-07T14:32:30.179Z,0.88
2022-12-07T14:35:20.237Z,0.40
2022-12-07T14:37:49.945Z,0.55
2022-12-07T14:40:28.503Z,0.57
2022-12-07T14:43:10.531Z,0.60
2022-12-07T14:45:37.572Z,0.55
2022-12-07T14:53:50.065Z,0.65
2022-12-07T14:56:20.329Z,0.75
2022-12-07T14:58:49.140Z,0.75
2022-12-07T15:01:16.089Z,0.50
2022-12-07T15:03:43.226Z,0.47
2022-12-07T15:06:17.314Z,0.50
2022-12-07T15:08:45.560Z,0.50
2022-12-07T15:11:29.282Z,1.00
2022-12-07T15:14:14.826Z,0.82
2022-12-07T15:17:07.353Z,0.85
2022-12-07T15:19:31.202Z,0.70
2022-12-07T15:22:00.801Z,0.68
2022-12-07T15:24:28.089Z,0.90
2022-12-07T15:26:55.083Z,1.00
2022-12-07T15:29:23.540Z,0.98
2022-12-07T15:31:56.393Z,0.95
2022-12-07T15:34:33.515Z,2.10
2022-12-07T15:37:06.660Z,1.00
2022-12-07T15:39:33.883Z,1.50
2022-12-07T15:42:00.887Z,1.33
2022-12-07T15:44:46.852Z,0.70
2022-12-07T15:47:13.817Z,1.40
2022-12-07T15:49:40.851Z,1.08
2022-12-07T15:52:07.829Z,1.33
2022-12-07T15:54:35.017Z,1.00
2022-12-07T15:57:02.404Z,1.52
2022-12-07T15:59:29.942Z,1.33
2022-12-07T16:04:56.861Z,1.30
2022-12-07T16:07:23.851Z,0.93
2022-12-07T16:09:51.057Z,1.42
2022-12-07T16:12:18.228Z,1.23
2022-12-07T16:14:45.382Z,2.17
2022-12-07T16:20:24.232Z,0.85
2022-12-07T16:22:57.808Z,0.52
2022-12-07T16:25:38.228Z,0.60
2022-12-07T16:28:41.166Z,3.20
2022-12-07T16:35:02.818Z,0.85
2022-12-07T16:59:34.933Z,0.43
2022-12-07T17:02:04.765Z,0.90
2022-12-07T17:04:32.471Z,0.88
2022-12-07T17:06:59.952Z,1.13
2022-12-07T17:09:27.281Z,1.05
2022-12-07T17:11:57.524Z,1.15
2022-12-07T17:34:56.889Z,1.90
2022-12-07T17:58:52.575Z,2.87
2022-12-07T18:01:23.822Z,2.70
2022-12-07T18:03:51.479Z,2.92
2022-12-07T18:06:18.530Z,2.72
2022-12-07T18:08:45.577Z,3.05
2022-12-07T18:11:15.008Z,2.90
2022-12-07T18:13:41.971Z,2.95
2022-12-07T18:16:14.027Z,3.35
2022-12-07T18:18:41.833Z,3.53
2022-12-07T18:21:16.735Z,4.53
2022-12-07T18:23:53.321Z,2.87
2022-12-07T18:26:23.288Z,3.50
2022-12-07T18:28:50.822Z,4.50
2022-12-07T18:31:18.799Z,3.70
2022-12-07T18:33:46.609Z,3.70
2022-12-07T18:36:15.184Z,3.10
2022-12-07T18:38:42.297Z,3.60
2022-12-07T18:41:13.206Z,3.70
2022-12-07T18:43:40.789Z,3.50
2022-12-07T18:46:26.185Z,3.60
2022-12-07T18:48:53.093Z,3.05
2022-12-07T18:51:20.680Z,3.85
2022-12-07T18:53:49.511Z,3.78
2022-12-07T18:56:23.060Z,3.58
2022-12-07T19:04:43.058Z,3.35
2022-12-07T19:07:10.153Z,3.47
2022-12-07T19:09:37.238Z,3.03
2022-12-07T19:12:05.475Z,3.83
2022-12-07T19:14:36.655Z,3.58
2022-12-07T19:17:12.076Z,5.85
2022-12-07T19:20:10.216Z,2.92
2022-12-07T19:22:37.132Z,3.50
2022-12-07T19:25:05.411Z,3.53
2022-12-07T19:27:33.844Z,3.38
2022-12-07T20:32:23.874Z,2.40
2022-12-07T20:34:51.196Z,2.22
2022-12-07T20:37:18.415Z,2.42
2022-12-07T20:39:45.566Z,3.42
2022-12-07T20:45:03.654Z,3.20
2022-12-07T20:47:30.848Z,2.88
2022-12-07T20:49:57.748Z,3.38
2022-12-07T20:52:24.691Z,3.33
2022-12-07T20:54:51.693Z,3.42
2022-12-07T20:57:18.571Z,4.43
2022-12-07T20:59:45.425Z,3.92
2022-12-07T21:02:13.957Z,4.05
2022-12-07T21:04:41.536Z,4.40
2022-12-07T21:07:09.048Z,3.10
2022-12-07T21:09:35.926Z,4.13
2022-12-07T21:12:02.795Z,3.55
2022-12-07T21:14:29.837Z,4.90
2022-12-07T21:16:56.889Z,5.65
2022-12-07T21:19:24.885Z,4.47
2022-12-07T21:21:52.284Z,5.30
2022-12-07T21:24:19.139Z,4.88
2022-12-07T21:26:46.055Z,4.50
2022-12-07T21:29:13.239Z,5.30
2022-12-07T21:31:40.277Z,4.78
2022-12-07T21:34:08.151Z,5.15
2022-12-07T21:36:35.649Z,5.70
2022-12-07T21:39:03.113Z,5.22
2022-12-07T21:41:32.660Z,5.65
2022-12-07T21:44:00.258Z,4.75
2022-12-07T21:46:33.677Z,5.97
2022-12-07T21:49:10.201Z,5.15
2022-12-07T21:54:05.723Z,5.13
2022-12-07T21:56:39.485Z,5.93
2022-12-07T21:59:11.305Z,5.90
2022-12-07T22:01:40.895Z,5.78
2022-12-07T22:04:11.567Z,7.72
2022-12-07T22:06:38.548Z,5.50
2022-12-07T22:09:06.817Z,5.25
2022-12-07T22:11:34.513Z,5.97
2022-12-07T22:14:20.417Z,7.47
2022-12-07T22:16:47.428Z,7.80
2022-12-07T22:19:14.355Z,6.60
2022-12-07T22:21:41.348Z,6.53
2022-12-07T22:24:08.682Z,6.00
2022-12-07T22:26:35.765Z,6.82
2022-12-07T22:29:03.006Z,7.13
2022-12-07T22:31:30.057Z,6.65
2022-12-07T22:33:57.633Z,5.32
2022-12-07T22:36:24.868Z,6.72
2022-12-07T22:38:52.008Z,6.00
2022-12-07T22:41:31.365Z,6.43
2022-12-07T22:43:59.435Z,6.00
2022-12-07T22:46:26.918Z,6.25
2022-12-07T22:48:54.202Z,6.43
2022-12-07T22:51:25.225Z,5.63
2022-12-07T22:53:53.553Z,5.38
2022-12-07T22:56:21.579Z,6.30
2022-12-07T22:58:49.131Z,7.03
2022-12-07T23:01:19.481Z,6.35
2022-12-07T23:03:46.785Z,7.20
2022-12-07T23:06:21.186Z,7.90
2022-12-07T23:08:48.735Z,7.93
2022-12-07T23:11:39.637Z,6.68
2022-12-07T23:14:13.312Z,7.47
2022-12-07T23:16:40.646Z,6.57
2022-12-07T23:19:07.760Z,8.48
2022-12-07T23:21:34.909Z,8.82
2022-12-07T23:24:02.247Z,7.47
2022-12-07T23:26:29.540Z,8.48
2022-12-07T23:28:58.229Z,7.63
2022-12-07T23:31:26.396Z,8.20
2022-12-07T23:33:53.540Z,8.52
2022-12-07T23:36:27.315Z,8.88
2022-12-07T23:38:57.242Z,7.68
2022-12-07T23:41:30.011Z,7.05
2022-12-07T23:43:59.771Z,9.60
2022-12-07T23:46:34.120Z,7.70
2022-12-07T23:49:04.857Z,7.50
2022-12-07T23:51:35.860Z,8.43
2022-12-07T23:54:03.704Z,7.47
2022-12-07T23:56:35.474Z,8.20
2022-12-07T23:59:03.955Z,8.75
